Jamaica, NY (11430)

3:04 PM EST on November 23, 2014 (GMT -0500)
Howard Beach | Change Station
CLOSE
Current Station
Personal Weather Station
Location: Queens, NY
Elevation: 7 ft
Nearby Weather Stations
Active Advisory: Wind Advisory

Elev 7 ft 40.66 °N, 73.84 °W | Updated 8 seconds ago

Mostly Cloudy
Mostly Cloudy
53.6 °F
Feels Like 53.6 °F
N
1.0
Wind Variable Wind from SSE
Gusts 6.0 mph

Today
High -- | Low -- °F
--% Chance of Precip.
Yesterday
High -- | Low -- °F
Precip. -- in
6:51 AM 4:31 PM
New Moon, 2% visible
Pressure 30.16 in
Visibility 10.0 miles
Clouds Few 11000 ft
Scattered Clouds 18000 ft
Mostly Cloudy 26000 ft
Dew Point 37 °F
Humidity 53%
Rainfall 0.00 in
Snow Depth Not available.
UV 0 out of 12
Pollen .10 out of 12
Air Quality Not available.
Flu Activity Not available.
METAR KJFK 231951Z 17007KT 10SM FEW110 SCT180 BKN260 12/00 A3016 RMK AO2 SLP213 T01170000 $

More Conditions Fewer Conditions

Pressure 30.16 in
Visibility 10.0 miles
Clouds Few 11000 ft
Scattered Clouds 18000 ft
Mostly Cloudy 26000 ft
Dew Point 37 °F
Humidity 53%
Rainfall 0.00 in
Snow Depth Not available.
UV 0 out of 12
Pollen .10 out of 12
Air Quality Not available.
Flu Activity Not available.
METAR KJFK 231951Z 17007KT 10SM FEW110 SCT180 BKN260 12/00 A3016 RMK AO2 SLP213 T01170000 $

More Conditions Fewer Conditions

10-Day Weather Forecast

Almanac

Astronomy

Nov. 23, 2014 Rise Set
Actual Time
Civil Twilight
Nautical Twilight
Astronomical Twilight
Moon
Length of Visible Light
Length of Day
Tomorrow will be .
, % of the Moon is Illuminated

Today's Extremes

State Highs State Lows

Community

WunderPhotos

Upload Photos

1,773,167 photos uploaded!

WunderBlogs® & News

Nearby

Air Quality

  Air Quality AQ Index Pollutant
Not available.

Snow Depth

Station Depth Elevation

Earthquake Activity

City Distance Mag. Time & Date
Minimum magnitude displayed is 2.5.

Coastal Water Temperatures

Place Temperature

Nearby Weather Stations